Time;durP1;ratioP1;P1;durP2;ratioP2;P2;SDS_P1;SDS_P2;PMS_P1;PMS_P2;Temp;Humidity;BMP_temperature;BMP_pressure;BME280_temperature;BME280_humidity;BME280_pressure;Samples;Min_cycle;Max_cycle;Signal;HPM_P1;HPM_P2
2023/06/02 00:00:54;;;;;;;15.13;2.78;;;10.80;99.90;;;;;;5027448;28;20048;-83
2023/06/02 00:03:20;;;;;;;14.73;2.53;;;10.70;99.90;;;;;;5017147;28;20401;-83
2023/06/02 00:05:46;;;;;;;18.25;2.47;;;10.70;99.90;;;;;;5000253;28;20041;-80
2023/06/02 00:08:12;;;;;;;14.27;3.20;;;10.70;99.90;;;;;;4987701;28;20075;-81
2023/06/02 00:10:38;;;;;;;10.95;2.78;;;10.70;99.90;;;;;;5018701;28;20112;-83
2023/06/02 00:13:06;;;;;;;17.63;2.95;;;11.50;99.90;;;;;;5022556;28;20056;-83
2023/06/02 00:15:33;;;;;;;13.88;2.45;;;12.30;99.90;;;;;;5020966;28;20087;-83
2023/06/02 00:17:58;;;;;;;12.07;2.17;;;10.70;99.90;;;;;;5023534;28;20041;-83
2023/06/02 00:20:27;;;;;;;15.15;2.40;;;12.50;99.90;;;;;;5022954;28;20047;-83
2023/06/02 00:22:54;;;;;;;15.55;2.50;;;10.70;99.90;;;;;;5023107;28;20052;-84
2023/06/02 00:25:19;;;;;;;16.83;2.90;;;10.70;99.90;;;;;;5012469;28;20049;-80
2023/06/02 00:27:45;;;;;;;19.33;2.42;;;10.70;99.90;;;;;;5027556;28;20183;-81
2023/06/02 00:30:11;;;;;;;16.83;3.10;;;10.70;99.90;;;;;;5037269;28;20034;-82
2023/06/02 00:32:37;;;;;;;17.25;3.28;;;10.60;99.90;;;;;;5033488;28;20037;-84
2023/06/02 00:35:03;;;;;;;17.00;3.35;;;10.70;99.90;;;;;;5028271;28;20137;-81
2023/06/02 00:37:28;;;;;;;17.95;2.83;;;10.60;99.90;;;;;;5019084;28;20125;-83
2023/06/02 00:39:54;;;;;;;18.88;2.83;;;10.70;99.90;;;;;;5028085;28;20045;-82
2023/06/02 00:42:23;;;;;;;15.23;2.78;;;10.60;99.90;;;;;;5027836;28;20092;-83
2023/06/02 00:44:48;;;;;;;16.65;2.45;;;10.60;99.90;;;;;;5025514;28;20049;-84
2023/06/02 00:47:14;;;;;;;11.57;2.47;;;10.60;99.90;;;;;;5024986;28;20153;-84
2023/06/02 00:49:41;;;;;;;14.98;3.13;;;10.60;99.90;;;;;;5010421;28;20048;-83
2023/06/02 00:52:09;;;;;;;19.67;4.15;;;10.60;99.90;;;;;;4982799;28;20041;-80
2023/06/02 00:54:35;;;;;;;17.73;2.78;;;10.60;99.90;;;;;;5008294;28;20041;-82
2023/06/02 00:57:02;;;;;;;15.98;3.00;;;10.60;99.90;;;;;;5022615;28;20050;-84
2023/06/02 00:59:29;;;;;;;21.55;3.00;;;10.60;99.90;;;;;;5005857;28;20428;-83
2023/06/02 01:01:54;;;;;;;13.70;3.03;;;10.50;99.90;;;;;;5025533;28;20451;-81
2023/06/02 01:04:21;;;;;;;16.33;3.05;;;10.50;99.90;;;;;;5005495;28;20049;-82
2023/06/02 01:06:48;;;;;;;14.88;3.00;;;10.50;99.90;;;;;;5028952;28;20076;-83
2023/06/02 01:09:24;;;;;;;14.23;2.45;;;10.50;99.90;;;;;;5027097;28;20061;-86
2023/06/02 01:11:51;;;;;;;11.02;2.45;;;10.50;99.90;;;;;;5008206;28;20038;-83
2023/06/02 01:14:17;;;;;;;11.93;2.30;;;10.50;99.90;;;;;;5024212;28;20046;-82
2023/06/02 01:16:44;;;;;;;13.52;2.50;;;12.00;99.90;;;;;;5024846;28;20504;-84
2023/06/02 01:19:14;;;;;;;15.77;2.58;;;10.50;99.90;;;;;;5023701;28;20041;-80
2023/06/02 01:21:47;;;;;;;16.55;2.03;;;10.50;99.90;;;;;;5018491;28;20053;-82
2023/06/02 01:24:14;;;;;;;10.57;2.03;;;10.90;99.90;;;;;;5022450;28;20110;-83
2023/06/02 01:26:40;;;;;;;19.35;2.55;;;10.50;99.90;;;;;;5021855;28;20056;-83
2023/06/02 01:29:07;;;;;;;14.10;2.50;;;10.50;99.90;;;;;;5021481;28;20042;-84
2023/06/02 01:31:46;;;;;;;14.20;2.75;;;10.50;99.90;;;;;;5021273;28;20037;-84
2023/06/02 01:34:30;;;;;;;17.27;2.95;;;10.50;99.90;;;;;;5028434;28;20045;-85
2023/06/02 01:36:57;;;;;;;14.63;2.70;;;12.20;99.90;;;;;;5023968;28;20049;-82
2023/06/02 01:39:25;;;;;;;11.20;2.22;;;10.50;99.90;;;;;;5016330;28;20505;-81
2023/06/02 01:41:53;;;;;;;18.33;2.60;;;10.50;99.90;;;;;;5021968;28;20046;-85
2023/06/02 01:44:21;;;;;;;16.38;2.75;;;12.60;99.90;;;;;;5023388;28;20099;-83
2023/06/02 01:46:48;;;;;;;12.48;2.25;;;10.50;99.90;;;;;;5025989;28;20150;-81
2023/06/02 01:49:17;;;;;;;14.30;2.80;;;10.50;99.90;;;;;;5027775;28;20543;-82
2023/06/02 01:51:43;;;;;;;11.05;2.75;;;10.50;99.90;;;;;;5025221;28;20041;-84
2023/06/02 01:54:10;;;;;;;16.95;3.28;;;11.90;99.90;;;;;;5025382;28;20583;-81
2023/06/02 01:56:36;;;;;;;15.63;2.50;;;10.50;99.90;;;;;;5027744;28;20052;-82
2023/06/02 01:59:03;;;;;;;13.65;3.00;;;11.50;99.90;;;;;;5022056;28;20045;-81
2023/06/02 02:01:28;;;;;;;20.13;3.10;;;11.00;99.90;;;;;;5024693;28;20041;-82
2023/06/02 02:03:54;;;;;;;9.95;2.17;;;10.50;99.90;;;;;;5021947;28;20072;-81
2023/06/02 02:06:30;;;;;;;16.70;3.15;;;11.30;99.90;;;;;;5006349;28;20397;-82
2023/06/02 02:08:57;;;;;;;14.68;2.83;;;10.50;99.90;;;;;;5019987;28;20127;-82
2023/06/02 02:11:22;;;;;;;14.98;2.45;;;12.40;99.90;;;;;;5022297;28;20054;-82
2023/06/02 02:13:48;;;;;;;21.55;3.45;;;10.50;99.90;;;;;;5020924;28;20539;-81
2023/06/02 02:16:14;;;;;;;18.20;2.47;;;11.70;99.90;;;;;;5026484;28;20040;-83
2023/06/02 02:18:40;;;;;;;13.35;2.45;;;10.50;99.90;;;;;;5024559;28;20042;-83
2023/06/02 02:21:06;;;;;;;14.55;3.10;;;10.50;99.90;;;;;;5025318;28;20112;-82
2023/06/02 02:23:31;;;;;;;17.42;2.53;;;10.50;99.90;;;;;;5027648;28;20045;-82
2023/06/02 02:25:57;;;;;;;13.25;2.72;;;12.40;99.90;;;;;;5036305;28;20080;-85
2023/06/02 02:28:23;;;;;;;20.10;3.03;;;12.10;99.90;;;;;;5039758;28;20044;-81
2023/06/02 02:30:48;;;;;;;19.10;2.97;;;11.60;99.90;;;;;;5027848;28;20070;-80
2023/06/02 02:33:14;;;;;;;18.23;2.63;;;12.10;99.90;;;;;;5028510;28;20496;-82
2023/06/02 02:35:41;;;;;;;18.50;3.38;;;10.80;99.90;;;;;;5020064;28;20037;-81
2023/06/02 02:38:07;;;;;;;20.67;3.35;;;10.50;99.90;;;;;;5028004;28;20116;-81
2023/06/02 02:40:32;;;;;;;18.95;3.15;;;10.90;99.90;;;;;;5026043;28;20556;-83
2023/06/02 02:42:58;;;;;;;14.55;2.90;;;10.90;99.90;;;;;;4991644;28;20045;-84
2023/06/02 02:45:24;;;;;;;23.30;3.58;;;10.60;99.90;;;;;;5025806;28;20069;-81
2023/06/02 02:47:49;;;;;;;16.02;2.35;;;12.10;99.90;;;;;;5028437;28;20042;-83
2023/06/02 02:50:15;;;;;;;29.60;3.88;;;10.50;99.90;;;;;;5023883;28;20074;-83
2023/06/02 02:52:41;;;;;;;12.73;2.72;;;10.50;99.90;;;;;;5023709;28;20479;-82
2023/06/02 02:55:07;;;;;;;13.02;2.67;;;10.50;99.90;;;;;;5026754;28;20469;-84
2023/06/02 02:57:32;;;;;;;15.50;2.47;;;10.50;99.90;;;;;;5013075;28;20034;-84
2023/06/02 02:59:59;;;;;;;16.45;2.85;;;10.50;99.90;;;;;;5028526;28;20132;-83
2023/06/02 03:02:25;;;;;;;16.52;2.60;;;12.00;99.90;;;;;;5026793;28;20120;-84
2023/06/02 03:04:51;;;;;;;19.67;3.60;;;11.40;99.90;;;;;;5029995;28;20041;-85
2023/06/02 03:07:18;;;;;;;18.42;3.05;;;12.20;99.90;;;;;;5012856;28;20037;-83
2023/06/02 03:09:43;;;;;;;16.65;2.72;;;10.30;99.90;;;;;;5030692;28;20053;-83
2023/06/02 03:12:09;;;;;;;15.75;3.13;;;12.60;99.90;;;;;;5029952;28;20094;-83
2023/06/02 03:14:35;;;;;;;14.73;2.90;;;10.60;99.90;;;;;;5030081;28;20041;-83
2023/06/02 03:17:01;;;;;;;16.52;2.83;;;10.40;99.90;;;;;;5030081;28;20037;-84
2023/06/02 03:19:27;;;;;;;18.98;3.90;;;10.50;99.90;;;;;;5030667;28;20042;-83
2023/06/02 03:21:56;;;;;;;17.75;2.70;;;12.20;99.90;;;;;;5029137;28;20045;-84
2023/06/02 03:24:21;;;;;;;19.13;3.63;;;11.70;99.90;;;;;;5028676;28;20085;-82
2023/06/02 03:26:49;;;;;;;15.68;2.97;;;10.60;99.90;;;;;;5030706;28;20072;-82
2023/06/02 03:29:15;;;;;;;13.73;2.55;;;10.60;99.90;;;;;;5030149;28;20041;-82
2023/06/02 03:31:43;;;;;;;12.38;2.38;;;12.10;99.90;;;;;;5029321;28;20140;-83
2023/06/02 03:34:09;;;;;;;16.58;2.92;;;11.80;99.90;;;;;;5010975;28;20045;-81
2023/06/02 03:36:35;;;;;;;20.05;3.10;;;10.60;99.90;;;;;;5030617;28;20180;-82
2023/06/02 03:39:07;;;;;;;15.90;2.97;;;11.70;99.90;;;;;;5030143;28;20083;-82
2023/06/02 03:41:35;;;;;;;15.50;4.00;;;10.60;99.90;;;;;;5030423;28;20037;-82
2023/06/02 03:44:02;;;;;;;17.35;2.45;;;10.60;99.90;;;;;;5007518;28;20180;-85
2023/06/02 03:46:28;;;;;;;12.50;3.28;;;10.60;99.90;;;;;;5028615;28;20038;-83
2023/06/02 03:48:54;;;;;;;20.90;3.67;;;11.20;99.90;;;;;;5010592;28;20033;-82
2023/06/02 03:51:20;;;;;;;17.02;2.95;;;10.70;99.90;;;;;;4994735;28;20040;-84
2023/06/02 03:53:46;;;;;;;17.42;3.70;;;10.60;99.90;;;;;;5026246;28;20049;-83
2023/06/02 03:56:12;;;;;;;19.50;3.85;;;11.20;99.90;;;;;;5023921;28;20581;-84
2023/06/02 03:58:38;;;;;;;14.23;3.05;;;10.70;99.90;;;;;;5024231;28;20152;-83
2023/06/02 04:01:04;;;;;;;19.10;2.78;;;12.40;99.90;;;;;;5029706;28;20445;-82
2023/06/02 04:03:32;;;;;;;11.90;3.17;;;10.70;99.90;;;;;;5011832;28;20448;-84
2023/06/02 04:05:59;;;;;;;19.48;2.88;;;12.50;99.90;;;;;;5007454;28;20045;-82
2023/06/02 04:08:26;;;;;;;16.55;3.28;;;12.20;99.90;;;;;;5003028;28;20562;-83
2023/06/02 04:10:52;;;;;;;19.23;4.60;;;11.80;99.90;;;;;;5026348;28;20166;-82
2023/06/02 04:13:18;;;;;;;23.65;4.18;;;10.70;99.90;;;;;;5027029;28;20520;-83
2023/06/02 04:15:44;;;;;;;17.13;2.92;;;10.80;99.90;;;;;;5028929;28;20041;-84
2023/06/02 04:18:09;;;;;;;15.95;2.92;;;11.90;99.90;;;;;;5020419;28;20040;-80
2023/06/02 04:20:35;;;;;;;18.08;2.92;;;11.20;99.90;;;;;;5029024;28;20524;-82
2023/06/02 04:23:01;;;;;;;16.20;3.33;;;10.80;99.90;;;;;;5035283;28;20042;-83
2023/06/02 04:25:26;;;;;;;18.50;3.90;;;12.80;99.90;;;;;;5040429;28;20045;-83
2023/06/02 04:27:52;;;;;;;18.95;3.45;;;11.20;99.90;;;;;;5024677;28;20041;-83
2023/06/02 04:30:17;;;;;;;22.13;3.13;;;11.50;99.90;;;;;;5025704;28;20045;-85
2023/06/02 04:32:43;;;;;;;15.02;3.13;;;12.00;99.90;;;;;;5030823;28;20063;-82
2023/06/02 04:35:10;;;;;;;21.75;3.55;;;10.80;99.90;;;;;;5013988;28;20045;-84
2023/06/02 04:37:36;;;;;;;20.27;3.60;;;11.60;99.90;;;;;;5001889;28;20050;-82
2023/06/02 04:40:03;;;;;;;18.52;3.53;;;10.90;99.90;;;;;;5024551;28;20084;-83
2023/06/02 04:42:28;;;;;;;13.15;3.42;;;11.40;99.90;;;;;;5024537;28;20046;-82
2023/06/02 04:44:54;;;;;;;16.55;3.08;;;10.90;99.90;;;;;;5002458;28;20121;-83
2023/06/02 04:47:20;;;;;;;18.42;3.75;;;10.90;99.90;;;;;;5027377;28;20068;-82
2023/06/02 04:49:47;;;;;;;14.82;2.78;;;11.20;99.90;;;;;;5021912;28;20033;-85
2023/06/02 04:52:13;;;;;;;19.52;3.92;;;10.90;99.90;;;;;;5023751;28;20064;-84
2023/06/02 04:54:39;;;;;;;16.58;2.50;;;12.30;99.90;;;;;;5022133;28;20092;-82
2023/06/02 04:57:05;;;;;;;17.38;3.05;;;12.60;99.90;;;;;;5021728;28;20044;-85
2023/06/02 04:59:35;;;;;;;20.92;3.50;;;10.90;99.90;;;;;;5024853;28;20056;-85
2023/06/02 05:02:01;;;;;;;17.08;3.47;;;11.00;99.90;;;;;;5020675;28;20050;-82
2023/06/02 05:04:27;;;;;;;14.43;3.30;;;11.00;99.90;;;;;;5024510;28;20570;-85
2023/06/02 05:06:53;;;;;;;16.77;2.83;;;11.00;99.90;;;;;;5029759;28;20143;-82
2023/06/02 05:09:19;;;;;;;14.93;2.90;;;11.00;99.90;;;;;;5022087;28;20395;-83
2023/06/02 05:11:45;;;;;;;20.42;3.33;;;12.10;99.90;;;;;;5022486;28;20045;-82
2023/06/02 05:14:10;;;;;;;11.88;2.58;;;11.10;99.90;;;;;;5011097;28;20053;-83
2023/06/02 05:16:36;;;;;;;15.75;3.17;;;12.90;99.90;;;;;;5012369;28;20042;-83
2023/06/02 05:19:05;;;;;;;17.50;3.40;;;11.50;99.90;;;;;;5003010;28;20049;-79
2023/06/02 05:21:31;;;;;;;17.38;3.17;;;11.40;99.90;;;;;;5027564;28;20049;-80
2023/06/02 05:23:58;;;;;;;14.52;3.08;;;11.10;99.90;;;;;;5020970;28;20398;-82
2023/06/02 05:26:24;;;;;;;18.75;3.50;;;12.90;99.90;;;;;;5002116;28;20092;-81
2023/06/02 05:28:50;;;;;;;24.55;3.70;;;11.20;99.90;;;;;;5022434;28;20056;-82
2023/06/02 05:31:17;;;;;;;19.23;3.70;;;10.70;99.90;;;;;;5029214;28;20048;-81
2023/06/02 05:33:42;;;;;;;25.55;3.65;;;11.70;99.90;;;;;;5029416;28;20603;-82
2023/06/02 05:36:08;;;;;;;20.08;3.88;;;11.20;99.90;;;;;;5038395;28;20038;-83
2023/06/02 05:38:34;;;;;;;15.63;3.38;;;11.20;99.90;;;;;;5001970;28;20580;-83
2023/06/02 05:41:00;;;;;;;22.27;3.60;;;11.30;99.90;;;;;;5025034;28;20093;-82
2023/06/02 05:43:26;;;;;;;21.30;3.25;;;12.70;99.90;;;;;;5020084;28;20375;-83
2023/06/02 05:45:52;;;;;;;24.52;6.95;;;11.30;99.90;;;;;;5020399;28;20112;-85
2023/06/02 05:48:17;;;;;;;18.92;4.97;;;11.50;99.90;;;;;;5022303;28;20072;-83
2023/06/02 05:50:43;;;;;;;20.67;3.67;;;11.40;99.90;;;;;;5021567;28;20497;-84
2023/06/02 05:53:09;;;;;;;22.05;3.67;;;12.30;99.90;;;;;;5001727;28;20497;-81
2023/06/02 05:55:34;;;;;;;26.63;3.88;;;12.80;99.90;;;;;;5019631;28;20360;-84
2023/06/02 05:58:00;;;;;;;27.48;4.75;;;11.50;99.90;;;;;;5020187;28;20048;-82
2023/06/02 06:00:26;;;;;;;19.45;4.05;;;11.50;99.90;;;;;;5020268;28;20173;-84
2023/06/02 06:02:52;;;;;;;23.88;4.13;;;12.90;99.90;;;;;;5020180;28;20038;-83
2023/06/02 06:05:18;;;;;;;23.98;3.10;;;11.70;99.90;;;;;;5005971;28;20065;-83
2023/06/02 06:07:43;;;;;;;18.10;3.72;;;11.60;99.90;;;;;;5022334;28;20098;-83
2023/06/02 06:10:09;;;;;;;19.50;4.32;;;12.80;99.90;;;;;;5019100;28;20057;-84
2023/06/02 06:12:35;;;;;;;23.17;4.45;;;13.10;99.90;;;;;;5023690;28;20140;-85
2023/06/02 06:15:02;;;;;;;27.23;6.45;;;12.70;99.90;;;;;;5008558;28;20118;-83
2023/06/02 06:17:29;;;;;;;25.80;6.28;;;11.80;99.90;;;;;;5037671;28;20034;-84
2023/06/02 06:19:55;;;;;;;30.92;14.35;;;12.60;99.90;;;;;;5021424;28;20056;-84
2023/06/02 06:22:21;;;;;;;29.75;5.88;;;11.90;99.90;;;;;;5027796;28;20042;-84
2023/06/02 06:24:46;;;;;;;20.70;4.45;;;11.90;99.90;;;;;;5030638;28;20053;-83
2023/06/02 06:27:12;;;;;;;21.60;4.07;;;12.00;99.90;;;;;;5025789;28;20039;-81
2023/06/02 06:29:38;;;;;;;19.38;4.13;;;12.10;99.90;;;;;;5023000;28;20121;-84
2023/06/02 06:32:06;;;;;;;22.05;4.43;;;12.70;99.90;;;;;;4327959;28;10000701;-81
2023/06/02 06:34:32;;;;;;;21.63;3.85;;;12.10;99.90;;;;;;5006549;28;20045;-80
2023/06/02 06:37:01;;;;;;;21.15;4.63;;;13.40;99.90;;;;;;5023353;28;20041;-79
2023/06/02 06:39:26;;;;;;;19.48;4.22;;;12.20;99.90;;;;;;5026743;28;20046;-80
2023/06/02 06:41:52;;;;;;;24.02;5.05;;;12.20;99.90;;;;;;5026323;28;20042;-79
2023/06/02 06:44:17;;;;;;;23.02;4.25;;;12.20;99.90;;;;;;5025419;28;20487;-80
2023/06/02 06:46:43;;;;;;;23.60;4.68;;;14.00;99.90;;;;;;4988811;28;20056;-79
2023/06/02 06:49:09;;;;;;;36.65;5.80;;;12.30;99.90;;;;;;5021090;28;20045;-78
2023/06/02 06:51:36;;;;;;;20.73;4.38;;;12.40;99.90;;;;;;5025289;28;20479;-78
2023/06/02 06:54:02;;;;;;;19.90;4.25;;;12.40;99.90;;;;;;5023723;28;20060;-81
2023/06/02 06:56:27;;;;;;;25.98;5.07;;;12.50;99.90;;;;;;5022635;28;20630;-77
2023/06/02 06:58:53;;;;;;;16.73;4.03;;;13.80;99.90;;;;;;5032125;28;20072;-78
2023/06/02 07:01:19;;;;;;;23.77;5.63;;;14.30;99.90;;;;;;5019735;28;20037;-78
2023/06/02 07:03:44;;;;;;;17.77;5.00;;;12.70;99.90;;;;;;5024120;28;20525;-79
2023/06/02 07:06:10;;;;;;;25.27;5.50;;;12.80;99.90;;;;;;5029908;28;20049;-79
2023/06/02 07:08:36;;;;;;;27.95;4.93;;;12.80;99.90;;;;;;5023950;28;20041;-78
2023/06/02 07:11:02;;;;;;;17.70;5.15;;;12.80;99.90;;;;;;5022941;28;20053;-78
2023/06/02 07:13:27;;;;;;;36.55;4.85;;;12.90;99.90;;;;;;5003927;28;20041;-78
2023/06/02 07:15:53;;;;;;;20.80;4.50;;;14.80;99.90;;;;;;5026609;28;20099;-79
2023/06/02 07:18:19;;;;;;;17.90;4.43;;;14.00;99.90;;;;;;5026254;28;20049;-79
2023/06/02 07:20:45;;;;;;;22.15;4.15;;;13.10;99.90;;;;;;5020313;28;20042;-78
2023/06/02 07:23:10;;;;;;;30.98;5.10;;;13.50;99.90;;;;;;5001076;28;20041;-79
2023/06/02 07:25:36;;;;;;;21.73;4.07;;;13.30;99.90;;;;;;5022836;28;20060;-79
2023/06/02 07:28:05;;;;;;;18.58;4.18;;;13.40;99.90;;;;;;5016111;28;20045;-81
2023/06/02 07:30:31;;;;;;;23.15;4.47;;;13.30;99.90;;;;;;5022062;28;20045;-83
2023/06/02 07:32:57;;;;;;;27.15;4.03;;;15.00;99.90;;;;;;5022853;28;20076;-81
2023/06/02 07:35:23;;;;;;;22.67;3.50;;;14.90;99.90;;;;;;5020451;28;20077;-80
2023/06/02 07:37:53;;;;;;;23.92;3.53;;;14.10;99.90;;;;;;5019607;28;20030;-84
2023/06/02 07:40:19;;;;;;;17.05;3.42;;;14.30;99.90;;;;;;5018018;28;20081;-85
2023/06/02 07:42:45;;;;;;;20.63;3.83;;;14.70;99.90;;;;;;5026601;28;20091;-85
2023/06/02 07:45:11;;;;;;;19.30;3.88;;;15.30;99.90;;;;;;5028286;28;20045;-83
2023/06/02 07:47:37;;;;;;;15.85;4.05;;;15.00;99.90;;;;;;5029578;28;20064;-85
2023/06/02 07:50:03;;;;;;;17.48;3.30;;;14.30;99.90;;;;;;5029302;28;20041;-83
2023/06/02 07:52:28;;;;;;;25.90;3.75;;;13.80;99.90;;;;;;5027350;28;20041;-85
2023/06/02 07:54:54;;;;;;;17.83;3.47;;;15.50;99.90;;;;;;5027915;28;20049;-84
2023/06/02 07:57:20;;;;;;;20.10;4.20;;;15.00;99.90;;;;;;5025830;28;20056;-86
2023/06/02 07:59:46;;;;;;;16.63;4.28;;;14.30;99.90;;;;;;5009719;28;20041;-84
2023/06/02 08:02:11;;;;;;;26.67;5.05;;;14.00;99.90;;;;;;5009911;28;20131;-86
2023/06/02 08:04:37;;;;;;;17.83;3.13;;;14.10;99.90;;;;;;5026340;28;20044;-86
2023/06/02 08:07:04;;;;;;;20.38;3.95;;;14.10;99.90;;;;;;5028092;28;20128;-83
2023/06/02 08:09:30;;;;;;;17.58;3.78;;;14.10;99.90;;;;;;5011773;28;20057;-84
2023/06/02 08:11:56;;;;;;;25.35;4.07;;;14.10;99.90;;;;;;5034064;28;20048;-82
2023/06/02 08:14:21;;;;;;;15.00;2.80;;;14.10;99.90;;;;;;5035854;28;20459;-82
2023/06/02 08:16:48;;;;;;;14.27;3.28;;;15.60;99.90;;;;;;5029141;28;20034;-84
2023/06/02 08:19:14;;;;;;;18.38;3.05;;;14.20;99.90;;;;;;5015609;28;20073;-80
2023/06/02 08:21:41;;;;;;;13.48;2.72;;;14.30;99.90;;;;;;5030542;28;20119;-82
2023/06/02 08:24:07;;;;;;;12.18;2.60;;;14.30;99.90;;;;;;5021333;28;20569;-82
2023/06/02 08:26:32;;;;;;;16.83;3.05;;;14.30;99.90;;;;;;5027219;28;20121;-82
2023/06/02 08:28:59;;;;;;;16.55;2.63;;;14.40;99.90;;;;;;5001914;28;20067;-85
2023/06/02 08:31:25;;;;;;;8.18;1.95;;;15.20;99.90;;;;;;5011467;28;20389;-84
2023/06/02 08:33:54;;;;;;;12.32;2.13;;;15.60;99.90;;;;;;5022318;28;20061;-81
2023/06/02 08:36:20;;;;;;;10.02;2.08;;;14.60;99.90;;;;;;5019700;28;20045;-85
2023/06/02 08:38:51;;;;;;;9.82;2.45;;;14.60;99.90;;;;;;5026027;28;20168;-86
2023/06/02 08:41:17;;;;;;;10.90;1.35;;;14.80;99.90;;;;;;5025998;28;20038;-85
2023/06/02 08:43:46;;;;;;;9.27;1.65;;;16.10;99.90;;;;;;5027341;28;20042;-85
2023/06/02 08:46:15;;;;;;;5.03;1.63;;;15.20;99.90;;;;;;5002346;28;20049;-85
2023/06/02 08:48:45;;;;;;;8.45;1.50;;;14.90;99.90;;;;;;5030150;28;20520;-85
2023/06/02 08:51:13;;;;;;;8.20;1.50;;;14.40;99.90;;;;;;5029618;28;20068;-86
2023/06/02 08:53:39;;;;;;;8.00;1.60;;;16.50;99.90;;;;;;5020934;28;20045;-86
2023/06/02 08:56:05;;;;;;;10.88;1.52;;;15.10;99.90;;;;;;5023922;28;20418;-86
2023/06/02 08:58:31;;;;;;;4.43;1.63;;;15.10;99.90;;;;;;5030523;28;20059;-85
2023/06/02 09:00:57;;;;;;;9.48;1.00;;;16.10;99.90;;;;;;5029416;28;20037;-85
2023/06/02 09:03:25;;;;;;;13.15;2.55;;;15.20;99.90;;;;;;5022781;28;20046;-81
2023/06/02 09:05:51;;;;;;;6.05;1.20;;;15.20;99.90;;;;;;5023679;28;20043;-82
2023/06/02 09:08:16;;;;;;;5.00;0.90;;;15.30;99.90;;;;;;5026727;28;20050;-81
2023/06/02 09:10:44;;;;;;;4.85;1.23;;;15.30;99.90;;;;;;5027157;28;20144;-80
2023/06/02 09:13:27;;;;;;;6.40;1.20;;;15.30;99.90;;;;;;5028434;28;20451;-83
2023/06/02 09:15:56;;;;;;;2.13;0.93;;;15.40;99.90;;;;;;5024443;28;20045;-81
2023/06/02 09:18:22;;;;;;;8.95;1.15;;;15.40;99.90;;;;;;5007797;28;20417;-82
2023/06/02 09:20:48;;;;;;;3.80;0.82;;;15.50;99.90;;;;;;5024227;28;20084;-80
2023/06/02 09:23:14;;;;;;;5.97;1.40;;;15.60;99.90;;;;;;5020066;28;20121;-82
2023/06/02 09:25:40;;;;;;;3.72;0.90;;;15.60;99.90;;;;;;5026138;28;20475;-81
2023/06/02 09:28:07;;;;;;;8.70;1.42;;;15.70;99.90;;;;;;5023409;28;20076;-81
2023/06/02 09:30:33;;;;;;;8.00;1.25;;;15.70;99.90;;;;;;5006852;28;20052;-80
2023/06/02 09:33:05;;;;;;;5.80;1.08;;;15.70;99.90;;;;;;5025254;28;20049;-81
2023/06/02 09:35:44;;;;;;;7.15;1.23;;;15.90;99.90;;;;;;5027894;28;20072;-82
2023/06/02 09:38:12;;;;;;;7.57;1.00;;;15.80;99.90;;;;;;5024667;28;20033;-82
2023/06/02 09:40:40;;;;;;;9.85;1.33;;;15.90;99.90;;;;;;5027897;28;20049;-81
2023/06/02 09:43:07;;;;;;;9.18;1.00;;;16.20;99.90;;;;;;5025694;28;20131;-80
2023/06/02 09:45:53;;;;;;;8.20;1.20;;;16.20;99.90;;;;;;5008700;28;20050;-81
2023/06/02 09:48:27;;;;;;;5.43;0.90;;;16.00;99.90;;;;;;5007824;28;20057;-81
2023/06/02 09:50:54;;;;;;;7.32;1.98;;;16.00;99.90;;;;;;5024636;28;20500;-80
2023/06/02 09:53:22;;;;;;;6.43;1.42;;;16.10;99.90;;;;;;5027851;28;20091;-79
2023/06/02 09:55:50;;;;;;;7.65;1.30;;;16.10;99.90;;;;;;4993041;28;20482;-80
2023/06/02 09:58:16;;;;;;;6.15;1.23;;;17.10;99.90;;;;;;5027884;28;20103;-81
2023/06/02 10:00:42;;;;;;;4.53;1.30;;;16.20;99.90;;;;;;5021521;28;20037;-81
2023/06/02 10:03:08;;;;;;;10.32;1.60;;;16.30;99.90;;;;;;5023944;28;20049;-81
2023/06/02 10:05:36;;;;;;;5.78;1.50;;;16.30;99.90;;;;;;5029690;28;20041;-80
2023/06/02 10:08:16;;;;;;;5.25;1.23;;;16.40;99.90;;;;;;5025662;28;20045;-80
2023/06/02 10:10:47;;;;;;;6.78;0.85;;;16.40;99.90;;;;;;5025642;28;20061;-81
2023/06/02 10:13:27;;;;;;;3.42;0.93;;;16.50;99.90;;;;;;5018327;28;20096;-81
2023/06/02 10:16:27;;;;;;;5.10;0.98;;;16.80;99.90;;;;;;5021298;28;20488;-82
2023/06/02 10:19:20;;;;;;;4.13;1.02;;;16.70;99.90;;;;;;5020247;28;20055;-80
2023/06/02 10:22:04;;;;;;;5.63;1.17;;;16.70;99.90;;;;;;5021882;28;20041;-80
2023/06/02 10:24:48;;;;;;;4.30;0.87;;;16.70;99.90;;;;;;5001771;28;20041;-81
2023/06/02 10:27:22;;;;;;;3.15;0.70;;;16.80;99.90;;;;;;5023554;28;20280;-80
2023/06/02 10:29:54;;;;;;;;;;;16.90;99.90;;;;;;5021221;28;20049;-80
2023/06/02 10:32:22;;;;;;;3.45;0.68;;;17.00;99.90;;;;;;5026075;28;20308;-80
2023/06/02 10:34:52;;;;;;;3.42;0.70;;;17.00;99.90;;;;;;5010776;28;20049;-81
2023/06/02 10:37:19;;;;;;;3.05;0.50;;;17.10;99.90;;;;;;4998442;28;20096;-78
2023/06/02 10:39:47;;;;;;;1.92;0.68;;;17.20;99.90;;;;;;5018620;28;20088;-80
2023/06/02 10:42:14;;;;;;;3.78;0.75;;;17.30;99.90;;;;;;4999177;28;20634;-81
2023/06/02 10:44:41;;;;;;;2.67;0.45;;;17.40;99.90;;;;;;5027704;28;20484;-78
2023/06/02 10:47:18;;;;;;;1.60;0.30;;;17.70;99.90;;;;;;5022714;28;20092;-82
2023/06/02 10:49:55;;;;;;;1.75;0.70;;;17.50;99.90;;;;;;5032130;28;20041;-82
2023/06/02 10:52:21;;;;;;;2.83;0.60;;;17.70;99.90;;;;;;4999129;28;20041;-80
2023/06/02 10:55:10;;;;;;;2.35;0.35;;;17.50;99.90;;;;;;5024326;28;20048;-82
2023/06/02 10:57:57;;;;;;;4.40;0.82;;;17.60;99.90;;;;;;5016493;28;20409;-81
2023/06/02 11:00:32;;;;;;;3.75;0.50;;;17.60;99.90;;;;;;5023762;28;20052;-82
2023/06/02 11:02:58;;;;;;;4.75;0.63;;;17.70;99.30;;;;;;5018333;28;20103;-78
2023/06/02 11:05:32;;;;;;;1.90;0.43;;;17.80;99.90;;;;;;5019974;28;20128;-80
2023/06/02 11:08:14;;;;;;;3.65;1.17;;;17.90;99.90;;;;;;5018936;28;20045;-79
2023/06/02 11:10:55;;;;;;;7.65;1.08;;;19.00;99.90;;;;;;5023784;28;20397;-79
2023/06/02 11:13:26;;;;;;;3.75;0.55;;;18.20;99.90;;;;;;5019900;28;20460;-80
2023/06/02 11:15:58;;;;;;;3.78;0.98;;;18.40;99.90;;;;;;5025355;28;20050;-79
2023/06/02 11:18:27;;;;;;;4.25;0.73;;;18.50;99.90;;;;;;5020959;28;20049;-79
2023/06/02 11:21:14;;;;;;;7.05;0.93;;;18.60;99.90;;;;;;5027128;28;20073;-79
2023/06/02 11:23:41;;;;;;;4.60;1.10;;;18.70;99.90;;;;;;5011272;28;20806;-80
2023/06/02 11:26:10;;;;;;;6.00;1.20;;;18.80;99.90;;;;;;5026038;28;20069;-84
2023/06/02 11:28:36;;;;;;;3.55;0.88;;;18.90;99.90;;;;;;5005329;28;20038;-80
2023/06/02 11:31:13;;;;;;;4.43;1.08;;;19.10;99.90;;;;;;4324247;28;10000754;-79
2023/06/02 11:33:50;;;;;;;4.70;1.35;;;19.10;99.90;;;;;;5026059;28;20784;-79
2023/06/02 11:36:24;;;;;;;5.63;1.10;;;19.20;99.90;;;;;;5002424;28;20041;-79
2023/06/02 11:38:49;;;;;;;6.72;1.85;;;19.30;99.90;;;;;;5030297;28;20056;-79
2023/06/02 11:41:17;;;;;;;4.50;1.30;;;19.60;99.90;;;;;;5024550;28;20582;-79
2023/06/02 11:43:50;;;;;;;2.95;1.67;;;19.50;99.90;;;;;;5025811;28;20069;-79
2023/06/02 11:46:18;;;;;;;5.30;1.33;;;19.60;99.90;;;;;;5021762;28;20481;-78
2023/06/02 11:48:46;;;;;;;8.45;1.48;;;19.60;99.90;;;;;;5019018;28;20065;-78
2023/06/02 11:51:13;;;;;;;5.60;1.00;;;19.70;99.90;;;;;;5033837;28;20044;-80
2023/06/02 11:53:44;;;;;;;4.93;1.20;;;19.90;99.90;;;;;;5037037;28;20052;-80
2023/06/02 11:56:15;;;;;;;5.15;1.10;;;19.90;99.90;;;;;;5023194;28;20593;-80
2023/06/02 11:58:45;;;;;;;5.47;1.67;;;20.00;99.90;;;;;;5034464;28;20081;-79
2023/06/02 12:01:17;;;;;;;6.97;1.70;;;20.10;99.90;;;;;;5021480;28;20421;-79
2023/06/02 12:04:06;;;;;;;8.63;1.73;;;20.50;99.90;;;;;;5026540;28;20099;-81
2023/06/02 12:06:40;;;;;;;6.93;1.30;;;20.40;99.90;;;;;;5025350;28;20417;-78
2023/06/02 12:09:16;;;;;;;5.53;1.42;;;20.50;99.90;;;;;;5025365;28;20085;-80
2023/06/02 12:11:43;;;;;;;8.43;1.97;;;20.60;99.90;;;;;;5017793;28;20537;-80
2023/06/02 12:14:09;;;;;;;4.38;1.27;;;20.70;99.90;;;;;;5028535;28;20038;-81
2023/06/02 12:16:38;;;;;;;7.00;1.67;;;20.80;99.90;;;;;;5021773;28;20095;-82
2023/06/02 12:19:22;;;;;;;7.35;2.08;;;20.90;99.90;;;;;;5023686;28;20319;-80
2023/06/02 12:21:51;;;;;;;6.38;1.90;;;21.10;99.90;;;;;;5028233;28;20076;-79
2023/06/02 12:24:33;;;;;;;8.48;2.03;;;21.20;99.90;;;;;;5023861;28;20049;-81
2023/06/02 12:27:00;;;;;;;7.47;2.22;;;21.60;99.90;;;;;;5008637;28;20041;-81
2023/06/02 12:29:27;;;;;;;5.10;1.58;;;21.50;99.90;;;;;;4987334;28;20045;-79
2023/06/02 12:32:08;;;;;;;10.75;2.10;;;21.50;99.90;;;;;;5022706;28;20052;-81
2023/06/02 12:34:34;;;;;;;7.50;2.35;;;21.40;99.90;;;;;;5020655;28;20120;-80
2023/06/02 12:37:01;;;;;;;7.03;2.28;;;21.30;99.90;;;;;;5020973;28;20437;-81
2023/06/02 12:39:27;;;;;;;6.80;1.88;;;21.10;99.90;;;;;;5027694;28;20091;-79
2023/06/02 12:41:52;;;;;;;5.65;1.95;;;21.10;99.90;;;;;;5020865;28;20088;-78
2023/06/02 12:44:18;;;;;;;4.78;1.83;;;21.10;99.90;;;;;;5020085;28;20509;-82